sensor_id;sensor_type;location;lat;lon;timestamp;P1;durP1;ratioP1;P2;durP2;ratioP2
18899;SDS011;9582;52.018;6.306;2024-02-15T00:00:49;22.38;;;14.60;;
18899;SDS011;9582;52.018;6.306;2024-02-15T00:03:17;21.48;;;14.30;;
18899;SDS011;9582;52.018;6.306;2024-02-15T00:05:45;19.42;;;14.45;;
18899;SDS011;9582;52.018;6.306;2024-02-15T00:08:12;19.65;;;14.65;;
18899;SDS011;9582;52.018;6.306;2024-02-15T00:10:40;21.23;;;14.15;;
18899;SDS011;9582;52.018;6.306;2024-02-15T00:13:06;21.00;;;15.32;;
18899;SDS011;9582;52.018;6.306;2024-02-15T00:15:33;22.83;;;15.25;;
18899;SDS011;9582;52.018;6.306;2024-02-15T00:18:02;23.50;;;14.30;;
18899;SDS011;9582;52.018;6.306;2024-02-15T00:20:29;23.02;;;15.13;;
18899;SDS011;9582;52.018;6.306;2024-02-15T00:22:56;24.40;;;15.93;;
18899;SDS011;9582;52.018;6.306;2024-02-15T00:25:23;24.33;;;15.10;;
18899;SDS011;9582;52.018;6.306;2024-02-15T00:27:51;26.20;;;15.55;;
18899;SDS011;9582;52.018;6.306;2024-02-15T00:30:18;23.95;;;16.10;;
18899;SDS011;9582;52.018;6.306;2024-02-15T00:32:45;23.13;;;15.82;;
18899;SDS011;9582;52.018;6.306;2024-02-15T00:35:12;23.83;;;16.50;;
18899;SDS011;9582;52.018;6.306;2024-02-15T00:37:40;24.63;;;16.00;;
18899;SDS011;9582;52.018;6.306;2024-02-15T00:40:08;27.48;;;16.90;;
18899;SDS011;9582;52.018;6.306;2024-02-15T00:42:35;29.35;;;17.88;;
18899;SDS011;9582;52.018;6.306;2024-02-15T00:45:02;29.00;;;17.92;;
18899;SDS011;9582;52.018;6.306;2024-02-15T00:47:30;24.48;;;17.60;;
18899;SDS011;9582;52.018;6.306;2024-02-15T00:49:58;30.88;;;18.13;;
18899;SDS011;9582;52.018;6.306;2024-02-15T00:52:24;29.40;;;17.88;;
18899;SDS011;9582;52.018;6.306;2024-02-15T00:54:51;30.02;;;18.27;;
18899;SDS011;9582;52.018;6.306;2024-02-15T00:57:19;32.50;;;18.92;;
18899;SDS011;9582;52.018;6.306;2024-02-15T00:59:46;29.27;;;19.13;;
18899;SDS011;9582;52.018;6.306;2024-02-15T01:02:13;29.90;;;18.35;;
18899;SDS011;9582;52.018;6.306;2024-02-15T01:04:40;31.88;;;19.40;;
18899;SDS011;9582;52.018;6.306;2024-02-15T01:07:08;31.73;;;18.80;;
18899;SDS011;9582;52.018;6.306;2024-02-15T01:09:34;31.58;;;19.50;;
18899;SDS011;9582;52.018;6.306;2024-02-15T01:12:01;34.15;;;20.25;;
18899;SDS011;9582;52.018;6.306;2024-02-15T01:14:30;34.67;;;20.55;;
18899;SDS011;9582;52.018;6.306;2024-02-15T01:16:57;33.85;;;20.65;;
18899;SDS011;9582;52.018;6.306;2024-02-15T01:19:24;34.72;;;21.13;;
18899;SDS011;9582;52.018;6.306;2024-02-15T01:21:50;33.88;;;21.02;;
18899;SDS011;9582;52.018;6.306;2024-02-15T01:24:18;33.08;;;20.90;;
18899;SDS011;9582;52.018;6.306;2024-02-15T01:26:45;36.20;;;21.77;;
18899;SDS011;9582;52.018;6.306;2024-02-15T01:29:13;31.88;;;20.05;;
18899;SDS011;9582;52.018;6.306;2024-02-15T01:31:40;37.05;;;21.00;;
18899;SDS011;9582;52.018;6.306;2024-02-15T01:34:08;32.15;;;19.98;;
18899;SDS011;9582;52.018;6.306;2024-02-15T01:36:35;33.17;;;20.75;;
18899;SDS011;9582;52.018;6.306;2024-02-15T01:39:01;37.15;;;20.83;;
18899;SDS011;9582;52.018;6.306;2024-02-15T01:41:28;35.53;;;21.60;;
18899;SDS011;9582;52.018;6.306;2024-02-15T01:43:55;34.20;;;21.52;;
18899;SDS011;9582;52.018;6.306;2024-02-15T01:46:21;33.45;;;20.20;;
18899;SDS011;9582;52.018;6.306;2024-02-15T01:48:49;33.80;;;19.08;;
18899;SDS011;9582;52.018;6.306;2024-02-15T01:51:16;34.45;;;20.33;;
18899;SDS011;9582;52.018;6.306;2024-02-15T01:53:43;32.65;;;19.52;;
18899;SDS011;9582;52.018;6.306;2024-02-15T01:56:11;27.73;;;19.20;;
18899;SDS011;9582;52.018;6.306;2024-02-15T01:58:39;34.35;;;20.45;;
18899;SDS011;9582;52.018;6.306;2024-02-15T02:01:07;33.38;;;19.70;;
18899;SDS011;9582;52.018;6.306;2024-02-15T02:03:34;30.52;;;18.10;;
18899;SDS011;9582;52.018;6.306;2024-02-15T02:06:03;30.50;;;18.60;;
18899;SDS011;9582;52.018;6.306;2024-02-15T02:08:30;34.63;;;18.05;;
18899;SDS011;9582;52.018;6.306;2024-02-15T02:10:56;32.72;;;18.67;;
18899;SDS011;9582;52.018;6.306;2024-02-15T02:13:23;29.92;;;17.48;;
18899;SDS011;9582;52.018;6.306;2024-02-15T02:15:50;29.65;;;17.27;;
18899;SDS011;9582;52.018;6.306;2024-02-15T02:18:17;31.38;;;17.95;;
18899;SDS011;9582;52.018;6.306;2024-02-15T02:20:43;32.60;;;17.27;;
18899;SDS011;9582;52.018;6.306;2024-02-15T02:23:14;30.70;;;17.92;;
18899;SDS011;9582;52.018;6.306;2024-02-15T02:25:45;28.50;;;18.17;;
18899;SDS011;9582;52.018;6.306;2024-02-15T02:28:14;34.33;;;18.77;;
18899;SDS011;9582;52.018;6.306;2024-02-15T02:30:42;27.98;;;18.80;;
18899;SDS011;9582;52.018;6.306;2024-02-15T02:33:10;32.58;;;19.02;;
18899;SDS011;9582;52.018;6.306;2024-02-15T02:35:44;33.35;;;17.83;;
18899;SDS011;9582;52.018;6.306;2024-02-15T02:38:11;29.70;;;18.30;;
18899;SDS011;9582;52.018;6.306;2024-02-15T02:40:39;30.35;;;17.55;;
18899;SDS011;9582;52.018;6.306;2024-02-15T02:43:08;31.95;;;19.33;;
18899;SDS011;9582;52.018;6.306;2024-02-15T02:45:34;27.70;;;17.80;;
18899;SDS011;9582;52.018;6.306;2024-02-15T02:48:01;28.40;;;19.05;;
18899;SDS011;9582;52.018;6.306;2024-02-15T02:50:28;29.45;;;17.25;;
18899;SDS011;9582;52.018;6.306;2024-02-15T02:52:55;29.52;;;17.08;;
18899;SDS011;9582;52.018;6.306;2024-02-15T02:55:22;26.98;;;16.15;;
18899;SDS011;9582;52.018;6.306;2024-02-15T02:57:48;28.08;;;17.30;;
18899;SDS011;9582;52.018;6.306;2024-02-15T03:00:17;29.27;;;17.02;;
18899;SDS011;9582;52.018;6.306;2024-02-15T03:02:45;36.08;;;18.45;;
18899;SDS011;9582;52.018;6.306;2024-02-15T03:05:11;30.70;;;18.65;;
18899;SDS011;9582;52.018;6.306;2024-02-15T03:07:39;32.92;;;17.83;;
18899;SDS011;9582;52.018;6.306;2024-02-15T03:10:07;36.60;;;18.48;;
18899;SDS011;9582;52.018;6.306;2024-02-15T03:12:34;30.77;;;18.42;;
18899;SDS011;9582;52.018;6.306;2024-02-15T03:15:01;27.80;;;16.88;;
18899;SDS011;9582;52.018;6.306;2024-02-15T03:17:30;27.20;;;16.10;;
18899;SDS011;9582;52.018;6.306;2024-02-15T03:19:57;21.00;;;15.23;;
18899;SDS011;9582;52.018;6.306;2024-02-15T03:22:24;25.20;;;15.82;;
18899;SDS011;9582;52.018;6.306;2024-02-15T03:24:51;24.92;;;15.60;;
18899;SDS011;9582;52.018;6.306;2024-02-15T03:27:19;30.92;;;15.95;;
18899;SDS011;9582;52.018;6.306;2024-02-15T03:29:48;23.30;;;14.82;;
18899;SDS011;9582;52.018;6.306;2024-02-15T03:32:14;28.40;;;15.32;;
18899;SDS011;9582;52.018;6.306;2024-02-15T03:34:43;23.70;;;14.45;;
18899;SDS011;9582;52.018;6.306;2024-02-15T03:37:10;30.00;;;15.25;;
18899;SDS011;9582;52.018;6.306;2024-02-15T03:39:37;25.20;;;13.68;;
18899;SDS011;9582;52.018;6.306;2024-02-15T03:42:03;24.63;;;14.02;;
18899;SDS011;9582;52.018;6.306;2024-02-15T03:44:31;27.48;;;14.00;;
18899;SDS011;9582;52.018;6.306;2024-02-15T03:46:57;24.52;;;13.65;;
18899;SDS011;9582;52.018;6.306;2024-02-15T03:49:24;25.38;;;13.30;;
18899;SDS011;9582;52.018;6.306;2024-02-15T03:51:53;23.83;;;12.50;;
18899;SDS011;9582;52.018;6.306;2024-02-15T03:54:20;28.15;;;14.18;;
18899;SDS011;9582;52.018;6.306;2024-02-15T03:56:47;24.67;;;12.95;;
18899;SDS011;9582;52.018;6.306;2024-02-15T03:59:16;23.85;;;12.40;;
18899;SDS011;9582;52.018;6.306;2024-02-15T04:01:44;24.38;;;12.70;;
18899;SDS011;9582;52.018;6.306;2024-02-15T04:04:12;28.13;;;13.02;;
18899;SDS011;9582;52.018;6.306;2024-02-15T04:06:39;19.83;;;12.05;;
18899;SDS011;9582;52.018;6.306;2024-02-15T04:09:08;24.00;;;11.90;;
18899;SDS011;9582;52.018;6.306;2024-02-15T04:11:35;20.45;;;11.55;;
18899;SDS011;9582;52.018;6.306;2024-02-15T04:14:02;22.00;;;11.23;;
18899;SDS011;9582;52.018;6.306;2024-02-15T04:16:29;21.40;;;11.27;;
18899;SDS011;9582;52.018;6.306;2024-02-15T04:18:57;23.58;;;11.75;;
18899;SDS011;9582;52.018;6.306;2024-02-15T04:21:23;28.60;;;13.82;;
18899;SDS011;9582;52.018;6.306;2024-02-15T04:23:52;25.02;;;13.98;;
18899;SDS011;9582;52.018;6.306;2024-02-15T04:26:21;29.85;;;15.60;;
18899;SDS011;9582;52.018;6.306;2024-02-15T04:28:52;38.78;;;19.25;;
18899;SDS011;9582;52.018;6.306;2024-02-15T04:31:18;40.05;;;21.35;;
18899;SDS011;9582;52.018;6.306;2024-02-15T04:33:51;40.75;;;22.80;;
18899;SDS011;9582;52.018;6.306;2024-02-15T04:36:19;51.40;;;25.63;;
18899;SDS011;9582;52.018;6.306;2024-02-15T04:38:49;49.45;;;26.27;;
18899;SDS011;9582;52.018;6.306;2024-02-15T04:41:16;46.72;;;26.52;;
18899;SDS011;9582;52.018;6.306;2024-02-15T04:43:46;54.10;;;27.98;;
18899;SDS011;9582;52.018;6.306;2024-02-15T04:46:12;56.90;;;28.73;;
18899;SDS011;9582;52.018;6.306;2024-02-15T04:48:39;50.92;;;26.15;;
18899;SDS011;9582;52.018;6.306;2024-02-15T04:51:06;56.58;;;27.25;;
18899;SDS011;9582;52.018;6.306;2024-02-15T04:53:33;47.25;;;25.45;;
18899;SDS011;9582;52.018;6.306;2024-02-15T04:56:01;55.10;;;26.35;;
18899;SDS011;9582;52.018;6.306;2024-02-15T04:58:34;48.50;;;24.23;;
18899;SDS011;9582;52.018;6.306;2024-02-15T05:01:04;44.08;;;22.95;;
18899;SDS011;9582;52.018;6.306;2024-02-15T05:03:31;40.58;;;22.42;;
18899;SDS011;9582;52.018;6.306;2024-02-15T05:06:00;38.22;;;21.38;;
18899;SDS011;9582;52.018;6.306;2024-02-15T05:08:26;33.13;;;18.27;;
18899;SDS011;9582;52.018;6.306;2024-02-15T05:10:57;34.95;;;19.83;;
18899;SDS011;9582;52.018;6.306;2024-02-15T05:13:24;30.40;;;17.98;;
18899;SDS011;9582;52.018;6.306;2024-02-15T05:15:51;29.73;;;16.80;;
18899;SDS011;9582;52.018;6.306;2024-02-15T05:18:19;23.55;;;14.20;;
18899;SDS011;9582;52.018;6.306;2024-02-15T05:20:45;26.13;;;13.38;;
18899;SDS011;9582;52.018;6.306;2024-02-15T05:23:12;21.48;;;12.75;;
18899;SDS011;9582;52.018;6.306;2024-02-15T05:25:40;25.40;;;12.38;;
18899;SDS011;9582;52.018;6.306;2024-02-15T05:28:06;23.67;;;12.63;;
18899;SDS011;9582;52.018;6.306;2024-02-15T05:30:33;21.42;;;11.55;;
18899;SDS011;9582;52.018;6.306;2024-02-15T05:33:03;21.27;;;10.65;;
18899;SDS011;9582;52.018;6.306;2024-02-15T05:35:31;19.90;;;10.23;;
18899;SDS011;9582;52.018;6.306;2024-02-15T05:37:58;18.83;;;9.27;;
18899;SDS011;9582;52.018;6.306;2024-02-15T05:40:24;16.85;;;8.07;;
18899;SDS011;9582;52.018;6.306;2024-02-15T05:42:54;17.17;;;8.73;;
18899;SDS011;9582;52.018;6.306;2024-02-15T05:45:28;12.93;;;7.85;;
18899;SDS011;9582;52.018;6.306;2024-02-15T05:47:57;17.08;;;6.72;;
18899;SDS011;9582;52.018;6.306;2024-02-15T05:50:25;12.80;;;6.25;;
18899;SDS011;9582;52.018;6.306;2024-02-15T05:52:55;11.38;;;5.15;;
18899;SDS011;9582;52.018;6.306;2024-02-15T05:55:23;11.52;;;5.53;;
18899;SDS011;9582;52.018;6.306;2024-02-15T05:57:51;16.88;;;6.07;;
18899;SDS011;9582;52.018;6.306;2024-02-15T06:00:19;10.77;;;5.55;;
18899;SDS011;9582;52.018;6.306;2024-02-15T06:02:46;13.93;;;5.88;;
18899;SDS011;9582;52.018;6.306;2024-02-15T06:05:12;10.35;;;4.93;;
18899;SDS011;9582;52.018;6.306;2024-02-15T06:07:42;13.38;;;5.65;;
18899;SDS011;9582;52.018;6.306;2024-02-15T06:10:10;14.73;;;6.10;;
18899;SDS011;9582;52.018;6.306;2024-02-15T06:12:38;12.40;;;5.70;;
18899;SDS011;9582;52.018;6.306;2024-02-15T06:15:05;13.50;;;5.57;;
18899;SDS011;9582;52.018;6.306;2024-02-15T06:17:40;12.43;;;5.30;;
18899;SDS011;9582;52.018;6.306;2024-02-15T06:20:09;14.35;;;5.93;;
18899;SDS011;9582;52.018;6.306;2024-02-15T06:22:39;15.52;;;5.32;;
18899;SDS011;9582;52.018;6.306;2024-02-15T06:25:06;15.38;;;6.10;;
18899;SDS011;9582;52.018;6.306;2024-02-15T06:27:36;12.98;;;5.88;;
18899;SDS011;9582;52.018;6.306;2024-02-15T06:30:06;19.30;;;7.18;;
18899;SDS011;9582;52.018;6.306;2024-02-15T06:32:50;12.00;;;6.63;;
18899;SDS011;9582;52.018;6.306;2024-02-15T06:35:34;10.85;;;6.55;;
18899;SDS011;9582;52.018;6.306;2024-02-15T06:38:19;12.05;;;6.20;;
18899;SDS011;9582;52.018;6.306;2024-02-15T06:41:18;14.05;;;6.35;;
18899;SDS011;9582;52.018;6.306;2024-02-15T06:43:46;9.80;;;5.80;;
18899;SDS011;9582;52.018;6.306;2024-02-15T06:46:13;14.75;;;6.70;;
18899;SDS011;9582;52.018;6.306;2024-02-15T06:48:41;11.00;;;6.20;;
18899;SDS011;9582;52.018;6.306;2024-02-15T06:51:11;10.77;;;6.00;;
18899;SDS011;9582;52.018;6.306;2024-02-15T06:53:40;15.27;;;6.10;;
18899;SDS011;9582;52.018;6.306;2024-02-15T06:56:08;14.70;;;6.60;;
18899;SDS011;9582;52.018;6.306;2024-02-15T06:58:35;17.45;;;6.75;;
18899;SDS011;9582;52.018;6.306;2024-02-15T07:01:03;13.68;;;6.78;;
18899;SDS011;9582;52.018;6.306;2024-02-15T07:03:30;13.82;;;7.60;;
18899;SDS011;9582;52.018;6.306;2024-02-15T07:05:57;18.00;;;7.20;;
18899;SDS011;9582;52.018;6.306;2024-02-15T07:08:24;12.18;;;6.75;;
18899;SDS011;9582;52.018;6.306;2024-02-15T07:10:50;16.02;;;7.75;;
18899;SDS011;9582;52.018;6.306;2024-02-15T07:13:17;14.90;;;7.63;;
18899;SDS011;9582;52.018;6.306;2024-02-15T07:15:44;16.98;;;7.55;;
18899;SDS011;9582;52.018;6.306;2024-02-15T07:18:13;16.98;;;7.82;;
18899;SDS011;9582;52.018;6.306;2024-02-15T07:20:45;11.38;;;7.00;;
18899;SDS011;9582;52.018;6.306;2024-02-15T07:23:11;14.00;;;7.60;;
18899;SDS011;9582;52.018;6.306;2024-02-15T07:25:38;17.45;;;8.00;;
18899;SDS011;9582;52.018;6.306;2024-02-15T07:28:05;13.18;;;6.55;;
18899;SDS011;9582;52.018;6.306;2024-02-15T07:30:33;13.35;;;6.90;;
18899;SDS011;9582;52.018;6.306;2024-02-15T07:32:59;10.23;;;6.40;;
18899;SDS011;9582;52.018;6.306;2024-02-15T07:35:28;17.48;;;7.07;;
18899;SDS011;9582;52.018;6.306;2024-02-15T07:37:55;12.45;;;6.85;;
18899;SDS011;9582;52.018;6.306;2024-02-15T07:40:23;10.75;;;6.75;;
18899;SDS011;9582;52.018;6.306;2024-02-15T07:42:54;12.23;;;7.07;;
18899;SDS011;9582;52.018;6.306;2024-02-15T07:45:22;10.38;;;6.40;;
18899;SDS011;9582;52.018;6.306;2024-02-15T07:47:49;9.10;;;6.25;;
18899;SDS011;9582;52.018;6.306;2024-02-15T07:50:16;9.85;;;6.50;;
18899;SDS011;9582;52.018;6.306;2024-02-15T07:52:49;12.38;;;6.40;;
18899;SDS011;9582;52.018;6.306;2024-02-15T07:55:16;9.98;;;6.30;;
18899;SDS011;9582;52.018;6.306;2024-02-15T07:57:43;11.38;;;6.07;;
18899;SDS011;9582;52.018;6.306;2024-02-15T08:00:11;11.88;;;6.32;;
18899;SDS011;9582;52.018;6.306;2024-02-15T08:02:41;11.50;;;5.80;;
18899;SDS011;9582;52.018;6.306;2024-02-15T08:05:09;10.82;;;5.97;;
18899;SDS011;9582;52.018;6.306;2024-02-15T08:07:37;10.70;;;5.80;;
18899;SDS011;9582;52.018;6.306;2024-02-15T08:10:06;10.50;;;5.97;;
18899;SDS011;9582;52.018;6.306;2024-02-15T08:12:38;12.95;;;6.30;;
18899;SDS011;9582;52.018;6.306;2024-02-15T08:15:05;9.80;;;6.40;;
18899;SDS011;9582;52.018;6.306;2024-02-15T08:17:37;15.35;;;6.30;;
18899;SDS011;9582;52.018;6.306;2024-02-15T08:20:06;13.48;;;6.68;;
18899;SDS011;9582;52.018;6.306;2024-02-15T08:22:34;13.80;;;6.88;;
18899;SDS011;9582;52.018;6.306;2024-02-15T08:25:05;8.40;;;6.18;;
18899;SDS011;9582;52.018;6.306;2024-02-15T08:27:36;14.95;;;6.22;;
18899;SDS011;9582;52.018;6.306;2024-02-15T08:30:06;11.85;;;5.97;;
18899;SDS011;9582;52.018;6.306;2024-02-15T08:32:34;17.27;;;7.53;;
18899;SDS011;9582;52.018;6.306;2024-02-15T08:35:01;11.98;;;6.72;;
18899;SDS011;9582;52.018;6.306;2024-02-15T08:37:29;11.70;;;6.25;;
18899;SDS011;9582;52.018;6.306;2024-02-15T08:39:57;11.40;;;5.88;;
18899;SDS011;9582;52.018;6.306;2024-02-15T08:42:26;14.90;;;6.85;;
18899;SDS011;9582;52.018;6.306;2024-02-15T08:44:53;9.57;;;6.70;;
18899;SDS011;9582;52.018;6.306;2024-02-15T08:47:20;11.88;;;7.57;;
18899;SDS011;9582;52.018;6.306;2024-02-15T08:49:47;14.10;;;6.75;;
18899;SDS011;9582;52.018;6.306;2024-02-15T08:52:13;11.20;;;7.28;;
18899;SDS011;9582;52.018;6.306;2024-02-15T08:54:43;10.57;;;7.30;;
18899;SDS011;9582;52.018;6.306;2024-02-15T08:57:09;11.48;;;6.88;;
18899;SDS011;9582;52.018;6.306;2024-02-15T08:59:38;15.43;;;7.95;;
18899;SDS011;9582;52.018;6.306;2024-02-15T09:02:07;13.35;;;7.35;;
18899;SDS011;9582;52.018;6.306;2024-02-15T09:04:35;13.80;;;7.47;;
18899;SDS011;9582;52.018;6.306;2024-02-15T09:07:01;13.70;;;7.68;;
18899;SDS011;9582;52.018;6.306;2024-02-15T09:09:29;14.50;;;8.50;;
18899;SDS011;9582;52.018;6.306;2024-02-15T09:11:56;18.50;;;8.68;;
18899;SDS011;9582;52.018;6.306;2024-02-15T09:14:23;15.23;;;8.25;;
18899;SDS011;9582;52.018;6.306;2024-02-15T09:16:51;14.70;;;7.38;;
18899;SDS011;9582;52.018;6.306;2024-02-15T09:19:18;14.10;;;7.00;;
18899;SDS011;9582;52.018;6.306;2024-02-15T09:21:44;13.82;;;7.18;;
18899;SDS011;9582;52.018;6.306;2024-02-15T09:24:11;12.75;;;7.90;;
18899;SDS011;9582;52.018;6.306;2024-02-15T09:26:37;12.80;;;7.43;;
18899;SDS011;9582;52.018;6.306;2024-02-15T09:29:04;16.80;;;7.65;;
18899;SDS011;9582;52.018;6.306;2024-02-15T09:31:31;15.30;;;7.68;;
18899;SDS011;9582;52.018;6.306;2024-02-15T09:34:01;14.48;;;7.97;;
18899;SDS011;9582;52.018;6.306;2024-02-15T09:36:33;14.57;;;8.00;;
18899;SDS011;9582;52.018;6.306;2024-02-15T09:39:00;10.57;;;7.10;;
18899;SDS011;9582;52.018;6.306;2024-02-15T09:41:26;9.68;;;6.35;;
18899;SDS011;9582;52.018;6.306;2024-02-15T09:43:53;10.95;;;6.72;;
18899;SDS011;9582;52.018;6.306;2024-02-15T09:46:20;9.82;;;6.15;;
18899;SDS011;9582;52.018;6.306;2024-02-15T09:48:47;9.45;;;5.07;;
18899;SDS011;9582;52.018;6.306;2024-02-15T09:51:18;10.93;;;6.18;;
18899;SDS011;9582;52.018;6.306;2024-02-15T09:53:47;13.57;;;5.75;;
18899;SDS011;9582;52.018;6.306;2024-02-15T09:56:14;12.30;;;5.63;;
18899;SDS011;9582;52.018;6.306;2024-02-15T09:58:41;12.02;;;6.10;;
18899;SDS011;9582;52.018;6.306;2024-02-15T10:01:09;10.77;;;6.05;;
18899;SDS011;9582;52.018;6.306;2024-02-15T10:03:37;10.70;;;5.05;;
18899;SDS011;9582;52.018;6.306;2024-02-15T10:06:05;11.13;;;6.18;;
18899;SDS011;9582;52.018;6.306;2024-02-15T10:08:33;12.35;;;5.85;;
18899;SDS011;9582;52.018;6.306;2024-02-15T10:11:06;14.18;;;6.60;;
18899;SDS011;9582;52.018;6.306;2024-02-15T10:13:34;12.48;;;6.53;;
18899;SDS011;9582;52.018;6.306;2024-02-15T10:16:13;12.77;;;6.05;;
18899;SDS011;9582;52.018;6.306;2024-02-15T10:18:40;9.98;;;5.95;;
18899;SDS011;9582;52.018;6.306;2024-02-15T10:21:07;16.33;;;6.78;;
18899;SDS011;9582;52.018;6.306;2024-02-15T10:23:35;10.98;;;5.68;;
18899;SDS011;9582;52.018;6.306;2024-02-15T10:26:03;13.38;;;5.40;;
18899;SDS011;9582;52.018;6.306;2024-02-15T10:28:51;13.35;;;5.72;;
18899;SDS011;9582;52.018;6.306;2024-02-15T10:31:32;9.95;;;4.57;;
18899;SDS011;9582;52.018;6.306;2024-02-15T10:34:01;10.13;;;4.75;;
18899;SDS011;9582;52.018;6.306;2024-02-15T10:36:30;16.05;;;4.20;;
18899;SDS011;9582;52.018;6.306;2024-02-15T10:39:11;12.07;;;4.47;;
18899;SDS011;9582;52.018;6.306;2024-02-15T10:41:43;9.77;;;3.92;;
18899;SDS011;9582;52.018;6.306;2024-02-15T10:44:11;11.48;;;4.38;;
18899;SDS011;9582;52.018;6.306;2024-02-15T10:46:42;11.07;;;4.00;;
18899;SDS011;9582;52.018;6.306;2024-02-15T10:49:10;8.20;;;3.80;;
18899;SDS011;9582;52.018;6.306;2024-02-15T10:51:39;10.65;;;4.70;;
18899;SDS011;9582;52.018;6.306;2024-02-15T10:54:10;7.43;;;4.05;;
18899;SDS011;9582;52.018;6.306;2024-02-15T10:56:43;10.05;;;4.50;;
18899;SDS011;9582;52.018;6.306;2024-02-15T10:59:16;8.73;;;3.67;;
18899;SDS011;9582;52.018;6.306;2024-02-15T11:01:44;6.82;;;4.38;;
18899;SDS011;9582;52.018;6.306;2024-02-15T11:04:14;8.45;;;3.90;;
18899;SDS011;9582;52.018;6.306;2024-02-15T11:06:42;10.63;;;4.18;;
18899;SDS011;9582;52.018;6.306;2024-02-15T11:09:10;6.22;;;3.85;;
18899;SDS011;9582;52.018;6.306;2024-02-15T11:11:40;12.13;;;3.72;;
18899;SDS011;9582;52.018;6.306;2024-02-15T11:14:22;7.85;;;4.10;;
18899;SDS011;9582;52.018;6.306;2024-02-15T11:16:49;7.57;;;4.10;;
18899;SDS011;9582;52.018;6.306;2024-02-15T11:22:15;7.30;;;3.58;;
18899;SDS011;9582;52.018;6.306;2024-02-15T11:24:46;7.28;;;3.83;;
18899;SDS011;9582;52.018;6.306;2024-02-15T11:27:23;10.38;;;4.80;;
18899;SDS011;9582;52.018;6.306;2024-02-15T11:29:52;8.13;;;4.25;;
18899;SDS011;9582;52.018;6.306;2024-02-15T11:32:42;8.25;;;4.63;;
18899;SDS011;9582;52.018;6.306;2024-02-15T11:35:12;8.80;;;4.40;;
18899;SDS011;9582;52.018;6.306;2024-02-15T11:40:59;10.48;;;4.55;;
18899;SDS011;9582;52.018;6.306;2024-02-15T11:46:23;11.43;;;5.82;;
18899;SDS011;9582;52.018;6.306;2024-02-15T11:48:52;9.95;;;5.05;;
18899;SDS011;9582;52.018;6.306;2024-02-15T11:51:29;8.30;;;4.95;;
18899;SDS011;9582;52.018;6.306;2024-02-15T11:54:01;10.55;;;5.07;;
18899;SDS011;9582;52.018;6.306;2024-02-15T11:56:31;9.25;;;5.10;;
18899;SDS011;9582;52.018;6.306;2024-02-15T11:59:04;9.18;;;5.10;;
18899;SDS011;9582;52.018;6.306;2024-02-15T12:01:32;8.00;;;4.82;;
18899;SDS011;9582;52.018;6.306;2024-02-15T12:04:16;9.90;;;4.90;;
18899;SDS011;9582;52.018;6.306;2024-02-15T12:07:13;12.30;;;5.05;;
18899;SDS011;9582;52.018;6.306;2024-02-15T12:09:58;10.50;;;4.75;;
18899;SDS011;9582;52.018;6.306;2024-02-15T12:12:50;11.13;;;4.90;;
18899;SDS011;9582;52.018;6.306;2024-02-15T12:15:36;9.50;;;4.97;;
18899;SDS011;9582;52.018;6.306;2024-02-15T12:18:20;7.88;;;3.97;;
18899;SDS011;9582;52.018;6.306;2024-02-15T12:21:04;9.13;;;4.30;;
18899;SDS011;9582;52.018;6.306;2024-02-15T12:23:34;7.88;;;4.50;;
18899;SDS011;9582;52.018;6.306;2024-02-15T12:26:02;7.45;;;5.20;;
18899;SDS011;9582;52.018;6.306;2024-02-15T12:28:29;6.10;;;4.25;;
18899;SDS011;9582;52.018;6.306;2024-02-15T12:30:57;11.07;;;4.72;;
18899;SDS011;9582;52.018;6.306;2024-02-15T12:33:24;6.30;;;4.22;;
18899;SDS011;9582;52.018;6.306;2024-02-15T12:35:52;7.90;;;4.22;;
18899;SDS011;9582;52.018;6.306;2024-02-15T12:38:30;8.20;;;3.88;;
18899;SDS011;9582;52.018;6.306;2024-02-15T12:40:57;8.60;;;4.05;;
18899;SDS011;9582;52.018;6.306;2024-02-15T12:43:23;8.02;;;4.38;;
18899;SDS011;9582;52.018;6.306;2024-02-15T12:45:51;8.75;;;4.28;;
18899;SDS011;9582;52.018;6.306;2024-02-15T12:48:20;6.57;;;3.97;;
18899;SDS011;9582;52.018;6.306;2024-02-15T12:50:47;7.53;;;4.55;;
18899;SDS011;9582;52.018;6.306;2024-02-15T12:53:20;7.10;;;3.88;;
18899;SDS011;9582;52.018;6.306;2024-02-15T12:55:52;7.38;;;4.00;;
18899;SDS011;9582;52.018;6.306;2024-02-15T12:58:20;9.82;;;3.90;;
18899;SDS011;9582;52.018;6.306;2024-02-15T13:00:49;8.98;;;4.00;;
18899;SDS011;9582;52.018;6.306;2024-02-15T13:03:16;9.95;;;4.38;;
18899;SDS011;9582;52.018;6.306;2024-02-15T13:05:44;7.13;;;3.55;;
18899;SDS011;9582;52.018;6.306;2024-02-15T13:08:13;8.65;;;3.95;;
18899;SDS011;9582;52.018;6.306;2024-02-15T13:10:43;7.15;;;3.78;;
18899;SDS011;9582;52.018;6.306;2024-02-15T13:13:10;8.48;;;4.20;;
18899;SDS011;9582;52.018;6.306;2024-02-15T13:15:37;7.85;;;3.88;;
18899;SDS011;9582;52.018;6.306;2024-02-15T13:18:04;4.63;;;3.08;;
18899;SDS011;9582;52.018;6.306;2024-02-15T13:20:30;8.38;;;3.58;;
18899;SDS011;9582;52.018;6.306;2024-02-15T13:23:01;5.22;;;3.25;;
18899;SDS011;9582;52.018;6.306;2024-02-15T13:25:33;6.00;;;3.00;;
18899;SDS011;9582;52.018;6.306;2024-02-15T13:28:01;8.05;;;3.17;;
18899;SDS011;9582;52.018;6.306;2024-02-15T13:30:29;6.38;;;3.05;;
18899;SDS011;9582;52.018;6.306;2024-02-15T13:32:56;4.55;;;2.42;;
18899;SDS011;9582;52.018;6.306;2024-02-15T13:35:23;5.80;;;2.22;;
18899;SDS011;9582;52.018;6.306;2024-02-15T13:37:50;6.88;;;2.75;;
18899;SDS011;9582;52.018;6.306;2024-02-15T13:40:20;5.90;;;2.75;;
18899;SDS011;9582;52.018;6.306;2024-02-15T13:42:49;4.07;;;2.75;;
18899;SDS011;9582;52.018;6.306;2024-02-15T13:45:19;7.88;;;3.13;;
18899;SDS011;9582;52.018;6.306;2024-02-15T13:47:47;8.40;;;2.80;;
18899;SDS011;9582;52.018;6.306;2024-02-15T13:50:15;6.70;;;3.08;;
18899;SDS011;9582;52.018;6.306;2024-02-15T13:52:43;5.20;;;2.47;;
18899;SDS011;9582;52.018;6.306;2024-02-15T13:55:10;5.45;;;2.95;;
18899;SDS011;9582;52.018;6.306;2024-02-15T13:57:40;6.10;;;2.55;;
18899;SDS011;9582;52.018;6.306;2024-02-15T14:00:08;8.07;;;3.13;;
18899;SDS011;9582;52.018;6.306;2024-02-15T14:02:39;7.30;;;2.63;;
18899;SDS011;9582;52.018;6.306;2024-02-15T14:05:07;4.85;;;2.80;;
18899;SDS011;9582;52.018;6.306;2024-02-15T14:07:34;8.15;;;3.08;;
18899;SDS011;9582;52.018;6.306;2024-02-15T14:10:01;6.07;;;2.78;;
18899;SDS011;9582;52.018;6.306;2024-02-15T14:12:28;5.20;;;3.05;;
18899;SDS011;9582;52.018;6.306;2024-02-15T14:14:56;4.88;;;2.78;;
18899;SDS011;9582;52.018;6.306;2024-02-15T14:17:23;6.05;;;2.85;;
18899;SDS011;9582;52.018;6.306;2024-02-15T14:19:50;4.72;;;3.08;;
18899;SDS011;9582;52.018;6.306;2024-02-15T14:22:16;5.72;;;3.10;;
18899;SDS011;9582;52.018;6.306;2024-02-15T14:24:43;6.30;;;3.05;;
18899;SDS011;9582;52.018;6.306;2024-02-15T14:27:10;6.55;;;3.15;;
18899;SDS011;9582;52.018;6.306;2024-02-15T14:29:37;6.80;;;3.30;;
18899;SDS011;9582;52.018;6.306;2024-02-15T14:32:11;8.18;;;2.92;;
18899;SDS011;9582;52.018;6.306;2024-02-15T14:34:55;6.28;;;3.67;;
18899;SDS011;9582;52.018;6.306;2024-02-15T14:37:22;5.28;;;3.05;;
18899;SDS011;9582;52.018;6.306;2024-02-15T14:39:49;5.28;;;2.70;;
18899;SDS011;9582;52.018;6.306;2024-02-15T14:42:16;4.07;;;2.47;;
18899;SDS011;9582;52.018;6.306;2024-02-15T14:44:43;6.10;;;2.72;;
18899;SDS011;9582;52.018;6.306;2024-02-15T14:47:09;6.40;;;2.70;;
18899;SDS011;9582;52.018;6.306;2024-02-15T14:49:38;6.38;;;2.80;;
18899;SDS011;9582;52.018;6.306;2024-02-15T14:52:04;5.10;;;2.38;;
18899;SDS011;9582;52.018;6.306;2024-02-15T14:54:32;4.57;;;2.72;;
18899;SDS011;9582;52.018;6.306;2024-02-15T14:57:01;5.13;;;2.70;;
18899;SDS011;9582;52.018;6.306;2024-02-15T14:59:27;8.40;;;2.50;;
18899;SDS011;9582;52.018;6.306;2024-02-15T15:01:54;3.95;;;2.63;;
18899;SDS011;9582;52.018;6.306;2024-02-15T15:04:22;4.65;;;2.42;;